sensor_id;sensor_type;location;lat;lon;timestamp;P1;durP1;ratioP1;P2;durP2;ratioP2
19221;SDS011;9745;50.828;4.378;2023-04-15T00:00:09;4.47;;;3.13;;
19221;SDS011;9745;50.828;4.378;2023-04-15T00:02:35;6.23;;;2.83;;
19221;SDS011;9745;50.828;4.378;2023-04-15T00:05:01;5.37;;;2.53;;
19221;SDS011;9745;50.828;4.378;2023-04-15T00:07:27;6.37;;;2.97;;
19221;SDS011;9745;50.828;4.378;2023-04-15T00:09:53;6.37;;;3.33;;
19221;SDS011;9745;50.828;4.378;2023-04-15T00:12:21;4.63;;;3.27;;
19221;SDS011;9745;50.828;4.378;2023-04-15T00:14:47;4.43;;;2.80;;
19221;SDS011;9745;50.828;4.378;2023-04-15T00:17:14;8.90;;;4.00;;
19221;SDS011;9745;50.828;4.378;2023-04-15T00:19:41;5.40;;;3.47;;
19221;SDS011;9745;50.828;4.378;2023-04-15T00:22:08;4.57;;;3.30;;
19221;SDS011;9745;50.828;4.378;2023-04-15T00:24:34;5.67;;;3.60;;
19221;SDS011;9745;50.828;4.378;2023-04-15T00:27:00;5.97;;;3.50;;
19221;SDS011;9745;50.828;4.378;2023-04-15T00:29:26;5.93;;;3.83;;
19221;SDS011;9745;50.828;4.378;2023-04-15T00:31:52;7.97;;;4.00;;
19221;SDS011;9745;50.828;4.378;2023-04-15T00:34:18;5.90;;;4.20;;
19221;SDS011;9745;50.828;4.378;2023-04-15T00:36:44;7.43;;;3.53;;
19221;SDS011;9745;50.828;4.378;2023-04-15T00:39:10;9.83;;;4.10;;
19221;SDS011;9745;50.828;4.378;2023-04-15T00:41:36;9.97;;;4.67;;
19221;SDS011;9745;50.828;4.378;2023-04-15T00:44:04;8.23;;;4.17;;
19221;SDS011;9745;50.828;4.378;2023-04-15T00:46:30;6.03;;;3.83;;
19221;SDS011;9745;50.828;4.378;2023-04-15T00:48:58;8.37;;;3.47;;
19221;SDS011;9745;50.828;4.378;2023-04-15T00:51:24;5.03;;;3.60;;
19221;SDS011;9745;50.828;4.378;2023-04-15T00:53:50;7.50;;;3.10;;
19221;SDS011;9745;50.828;4.378;2023-04-15T00:56:17;5.33;;;3.20;;
19221;SDS011;9745;50.828;4.378;2023-04-15T00:58:44;6.27;;;2.83;;
19221;SDS011;9745;50.828;4.378;2023-04-15T01:01:10;5.87;;;3.40;;
19221;SDS011;9745;50.828;4.378;2023-04-15T01:03:36;5.10;;;3.13;;
19221;SDS011;9745;50.828;4.378;2023-04-15T01:06:02;6.67;;;3.53;;
19221;SDS011;9745;50.828;4.378;2023-04-15T01:08:28;5.20;;;3.20;;
19221;SDS011;9745;50.828;4.378;2023-04-15T01:10:58;4.53;;;2.93;;
19221;SDS011;9745;50.828;4.378;2023-04-15T01:13:27;5.50;;;2.80;;
19221;SDS011;9745;50.828;4.378;2023-04-15T01:15:54;4.73;;;3.10;;
19221;SDS011;9745;50.828;4.378;2023-04-15T01:18:20;5.13;;;3.37;;
19221;SDS011;9745;50.828;4.378;2023-04-15T01:20:47;5.20;;;2.87;;
19221;SDS011;9745;50.828;4.378;2023-04-15T01:23:13;5.57;;;3.10;;
19221;SDS011;9745;50.828;4.378;2023-04-15T01:25:39;5.73;;;2.83;;
19221;SDS011;9745;50.828;4.378;2023-04-15T01:28:05;6.43;;;2.43;;
19221;SDS011;9745;50.828;4.378;2023-04-15T01:30:33;4.50;;;3.03;;
19221;SDS011;9745;50.828;4.378;2023-04-15T01:32:59;5.30;;;2.70;;
19221;SDS011;9745;50.828;4.378;2023-04-15T01:35:25;2.53;;;2.10;;
19221;SDS011;9745;50.828;4.378;2023-04-15T01:37:52;3.47;;;2.07;;
19221;SDS011;9745;50.828;4.378;2023-04-15T01:40:18;3.97;;;2.40;;
19221;SDS011;9745;50.828;4.378;2023-04-15T01:42:45;6.73;;;2.80;;
19221;SDS011;9745;50.828;4.378;2023-04-15T01:45:11;6.90;;;2.57;;
19221;SDS011;9745;50.828;4.378;2023-04-15T01:47:38;3.57;;;2.37;;
19221;SDS011;9745;50.828;4.378;2023-04-15T01:50:04;5.07;;;2.40;;
19221;SDS011;9745;50.828;4.378;2023-04-15T01:52:30;5.93;;;2.50;;
19221;SDS011;9745;50.828;4.378;2023-04-15T01:54:56;4.37;;;2.30;;
19221;SDS011;9745;50.828;4.378;2023-04-15T01:57:22;5.13;;;2.60;;
19221;SDS011;9745;50.828;4.378;2023-04-15T01:59:49;3.60;;;1.80;;
19221;SDS011;9745;50.828;4.378;2023-04-15T02:02:15;4.47;;;2.20;;
19221;SDS011;9745;50.828;4.378;2023-04-15T02:04:41;4.63;;;2.07;;
19221;SDS011;9745;50.828;4.378;2023-04-15T02:07:08;6.33;;;2.80;;
19221;SDS011;9745;50.828;4.378;2023-04-15T02:09:34;3.57;;;2.30;;
19221;SDS011;9745;50.828;4.378;2023-04-15T02:12:00;4.47;;;2.60;;
19221;SDS011;9745;50.828;4.378;2023-04-15T02:14:26;3.70;;;2.30;;
19221;SDS011;9745;50.828;4.378;2023-04-15T02:16:52;3.33;;;2.13;;
19221;SDS011;9745;50.828;4.378;2023-04-15T02:19:18;3.40;;;2.20;;
19221;SDS011;9745;50.828;4.378;2023-04-15T02:21:44;6.57;;;2.53;;
19221;SDS011;9745;50.828;4.378;2023-04-15T02:24:10;3.90;;;2.40;;
19221;SDS011;9745;50.828;4.378;2023-04-15T02:26:36;3.67;;;2.40;;
19221;SDS011;9745;50.828;4.378;2023-04-15T02:29:02;4.60;;;2.10;;
19221;SDS011;9745;50.828;4.378;2023-04-15T02:31:28;5.40;;;2.27;;
19221;SDS011;9745;50.828;4.378;2023-04-15T02:33:57;4.47;;;2.10;;
19221;SDS011;9745;50.828;4.378;2023-04-15T02:36:24;5.70;;;2.30;;
19221;SDS011;9745;50.828;4.378;2023-04-15T02:38:51;3.60;;;2.17;;
19221;SDS011;9745;50.828;4.378;2023-04-15T02:41:17;3.27;;;2.50;;
19221;SDS011;9745;50.828;4.378;2023-04-15T02:43:44;6.60;;;2.47;;
19221;SDS011;9745;50.828;4.378;2023-04-15T02:46:10;4.20;;;2.83;;
19221;SDS011;9745;50.828;4.378;2023-04-15T02:48:38;5.43;;;2.70;;
19221;SDS011;9745;50.828;4.378;2023-04-15T02:51:14;3.53;;;2.30;;
19221;SDS011;9745;50.828;4.378;2023-04-15T02:53:41;5.67;;;3.30;;
19221;SDS011;9745;50.828;4.378;2023-04-15T02:56:07;4.97;;;3.17;;
19221;SDS011;9745;50.828;4.378;2023-04-15T02:58:34;5.47;;;3.20;;
19221;SDS011;9745;50.828;4.378;2023-04-15T03:01:00;6.60;;;3.27;;
19221;SDS011;9745;50.828;4.378;2023-04-15T03:03:26;8.17;;;3.93;;
19221;SDS011;9745;50.828;4.378;2023-04-15T03:05:52;10.43;;;4.57;;
19221;SDS011;9745;50.828;4.378;2023-04-15T03:08:18;10.47;;;5.00;;
19221;SDS011;9745;50.828;4.378;2023-04-15T03:10:47;13.50;;;5.63;;
19221;SDS011;9745;50.828;4.378;2023-04-15T03:13:13;12.50;;;4.80;;
19221;SDS011;9745;50.828;4.378;2023-04-15T03:15:39;12.23;;;5.87;;
19221;SDS011;9745;50.828;4.378;2023-04-15T03:18:05;14.70;;;7.03;;
19221;SDS011;9745;50.828;4.378;2023-04-15T03:20:31;19.27;;;7.33;;
19221;SDS011;9745;50.828;4.378;2023-04-15T03:22:57;24.07;;;8.27;;
19221;SDS011;9745;50.828;4.378;2023-04-15T03:25:23;23.83;;;9.03;;
19221;SDS011;9745;50.828;4.378;2023-04-15T03:27:49;23.17;;;10.50;;
19221;SDS011;9745;50.828;4.378;2023-04-15T03:30:16;22.20;;;10.47;;
19221;SDS011;9745;50.828;4.378;2023-04-15T03:32:42;26.13;;;10.63;;
19221;SDS011;9745;50.828;4.378;2023-04-15T03:35:08;24.90;;;10.40;;
19221;SDS011;9745;50.828;4.378;2023-04-15T03:37:34;27.27;;;11.70;;
19221;SDS011;9745;50.828;4.378;2023-04-15T03:40:00;25.60;;;10.93;;
19221;SDS011;9745;50.828;4.378;2023-04-15T03:42:25;22.27;;;10.93;;
19221;SDS011;9745;50.828;4.378;2023-04-15T03:44:51;22.50;;;9.97;;
19221;SDS011;9745;50.828;4.378;2023-04-15T03:47:17;21.47;;;9.47;;
19221;SDS011;9745;50.828;4.378;2023-04-15T03:49:43;19.33;;;9.47;;
19221;SDS011;9745;50.828;4.378;2023-04-15T03:52:10;15.97;;;9.07;;
19221;SDS011;9745;50.828;4.378;2023-04-15T03:54:36;17.27;;;8.80;;
19221;SDS011;9745;50.828;4.378;2023-04-15T03:57:02;22.43;;;9.20;;
19221;SDS011;9745;50.828;4.378;2023-04-15T03:59:28;16.23;;;8.30;;
19221;SDS011;9745;50.828;4.378;2023-04-15T04:01:54;18.03;;;7.67;;
19221;SDS011;9745;50.828;4.378;2023-04-15T04:04:20;15.17;;;7.80;;
19221;SDS011;9745;50.828;4.378;2023-04-15T04:06:46;18.10;;;7.80;;
19221;SDS011;9745;50.828;4.378;2023-04-15T04:09:12;14.03;;;7.10;;
19221;SDS011;9745;50.828;4.378;2023-04-15T04:11:38;14.60;;;7.13;;
19221;SDS011;9745;50.828;4.378;2023-04-15T04:14:04;15.93;;;7.53;;
19221;SDS011;9745;50.828;4.378;2023-04-15T04:16:30;10.23;;;7.00;;
19221;SDS011;9745;50.828;4.378;2023-04-15T04:18:56;11.40;;;6.20;;
19221;SDS011;9745;50.828;4.378;2023-04-15T04:21:22;14.57;;;7.07;;
19221;SDS011;9745;50.828;4.378;2023-04-15T04:23:48;13.50;;;6.93;;
19221;SDS011;9745;50.828;4.378;2023-04-15T04:26:14;13.77;;;7.07;;
19221;SDS011;9745;50.828;4.378;2023-04-15T04:28:40;12.10;;;6.67;;
19221;SDS011;9745;50.828;4.378;2023-04-15T04:31:06;14.53;;;7.07;;
19221;SDS011;9745;50.828;4.378;2023-04-15T04:33:32;13.17;;;6.77;;
19221;SDS011;9745;50.828;4.378;2023-04-15T04:35:58;14.83;;;7.03;;
19221;SDS011;9745;50.828;4.378;2023-04-15T04:38:24;16.50;;;7.43;;
19221;SDS011;9745;50.828;4.378;2023-04-15T04:40:50;11.40;;;6.13;;
19221;SDS011;9745;50.828;4.378;2023-04-15T04:43:16;13.67;;;7.33;;
19221;SDS011;9745;50.828;4.378;2023-04-15T04:45:42;12.23;;;6.80;;
19221;SDS011;9745;50.828;4.378;2023-04-15T04:48:08;10.63;;;7.23;;
19221;SDS011;9745;50.828;4.378;2023-04-15T04:50:34;11.57;;;6.63;;
19221;SDS011;9745;50.828;4.378;2023-04-15T04:53:01;9.90;;;6.30;;
19221;SDS011;9745;50.828;4.378;2023-04-15T04:55:27;10.23;;;6.00;;
19221;SDS011;9745;50.828;4.378;2023-04-15T04:57:53;14.53;;;6.33;;
19221;SDS011;9745;50.828;4.378;2023-04-15T05:00:19;13.57;;;6.57;;
19221;SDS011;9745;50.828;4.378;2023-04-15T05:02:45;13.27;;;6.50;;
19221;SDS011;9745;50.828;4.378;2023-04-15T05:05:11;11.50;;;6.63;;
19221;SDS011;9745;50.828;4.378;2023-04-15T05:07:37;9.80;;;6.47;;
19221;SDS011;9745;50.828;4.378;2023-04-15T05:10:04;12.17;;;6.60;;
19221;SDS011;9745;50.828;4.378;2023-04-15T05:12:30;15.13;;;5.87;;
19221;SDS011;9745;50.828;4.378;2023-04-15T05:14:56;13.07;;;6.23;;
19221;SDS011;9745;50.828;4.378;2023-04-15T05:17:22;10.27;;;5.33;;
19221;SDS011;9745;50.828;4.378;2023-04-15T05:19:48;9.87;;;6.23;;
19221;SDS011;9745;50.828;4.378;2023-04-15T05:22:14;7.70;;;5.57;;
19221;SDS011;9745;50.828;4.378;2023-04-15T05:24:40;8.77;;;5.03;;
19221;SDS011;9745;50.828;4.378;2023-04-15T05:27:06;10.27;;;5.80;;
19221;SDS011;9745;50.828;4.378;2023-04-15T05:29:34;9.47;;;5.03;;
19221;SDS011;9745;50.828;4.378;2023-04-15T05:32:00;10.17;;;5.77;;
19221;SDS011;9745;50.828;4.378;2023-04-15T05:34:26;10.43;;;6.70;;
19221;SDS011;9745;50.828;4.378;2023-04-15T05:36:52;11.17;;;6.17;;
19221;SDS011;9745;50.828;4.378;2023-04-15T05:39:18;10.97;;;5.23;;
19221;SDS011;9745;50.828;4.378;2023-04-15T05:41:44;12.53;;;5.67;;
19221;SDS011;9745;50.828;4.378;2023-04-15T05:44:10;8.53;;;4.83;;
19221;SDS011;9745;50.828;4.378;2023-04-15T05:46:36;7.80;;;5.07;;
19221;SDS011;9745;50.828;4.378;2023-04-15T05:49:02;9.50;;;5.13;;
19221;SDS011;9745;50.828;4.378;2023-04-15T05:51:28;10.17;;;5.13;;
19221;SDS011;9745;50.828;4.378;2023-04-15T05:53:54;12.73;;;5.93;;
19221;SDS011;9745;50.828;4.378;2023-04-15T05:56:20;8.27;;;5.20;;
19221;SDS011;9745;50.828;4.378;2023-04-15T05:58:46;14.47;;;5.90;;
19221;SDS011;9745;50.828;4.378;2023-04-15T06:01:12;11.20;;;5.60;;
19221;SDS011;9745;50.828;4.378;2023-04-15T06:03:39;9.53;;;5.63;;
19221;SDS011;9745;50.828;4.378;2023-04-15T06:06:05;10.17;;;5.70;;
19221;SDS011;9745;50.828;4.378;2023-04-15T06:08:31;11.63;;;5.60;;
19221;SDS011;9745;50.828;4.378;2023-04-15T06:10:57;11.43;;;5.57;;
19221;SDS011;9745;50.828;4.378;2023-04-15T06:13:23;9.57;;;5.10;;
19221;SDS011;9745;50.828;4.378;2023-04-15T06:15:50;12.00;;;5.97;;
19221;SDS011;9745;50.828;4.378;2023-04-15T06:18:16;10.10;;;6.13;;
19221;SDS011;9745;50.828;4.378;2023-04-15T06:20:42;14.53;;;5.70;;
19221;SDS011;9745;50.828;4.378;2023-04-15T06:23:08;10.33;;;5.57;;
19221;SDS011;9745;50.828;4.378;2023-04-15T06:25:34;9.60;;;5.27;;
19221;SDS011;9745;50.828;4.378;2023-04-15T06:28:00;10.23;;;5.63;;
19221;SDS011;9745;50.828;4.378;2023-04-15T06:30:25;11.03;;;6.07;;
19221;SDS011;9745;50.828;4.378;2023-04-15T06:32:51;13.63;;;5.67;;
19221;SDS011;9745;50.828;4.378;2023-04-15T06:35:17;10.33;;;6.00;;
19221;SDS011;9745;50.828;4.378;2023-04-15T06:37:43;8.50;;;5.77;;
19221;SDS011;9745;50.828;4.378;2023-04-15T06:40:10;16.80;;;6.40;;
19221;SDS011;9745;50.828;4.378;2023-04-15T06:42:36;8.83;;;5.43;;
19221;SDS011;9745;50.828;4.378;2023-04-15T06:45:02;9.80;;;5.07;;
19221;SDS011;9745;50.828;4.378;2023-04-15T06:47:29;9.63;;;5.47;;
19221;SDS011;9745;50.828;4.378;2023-04-15T06:49:56;9.50;;;5.07;;
19221;SDS011;9745;50.828;4.378;2023-04-15T06:52:22;10.60;;;5.50;;
19221;SDS011;9745;50.828;4.378;2023-04-15T06:54:48;9.83;;;5.07;;
19221;SDS011;9745;50.828;4.378;2023-04-15T06:57:14;12.63;;;5.50;;
19221;SDS011;9745;50.828;4.378;2023-04-15T06:59:40;13.93;;;5.77;;
19221;SDS011;9745;50.828;4.378;2023-04-15T07:02:07;7.50;;;4.93;;
19221;SDS011;9745;50.828;4.378;2023-04-15T07:04:35;16.63;;;6.07;;
19221;SDS011;9745;50.828;4.378;2023-04-15T07:07:01;7.70;;;4.40;;
19221;SDS011;9745;50.828;4.378;2023-04-15T07:09:27;7.60;;;4.87;;
19221;SDS011;9745;50.828;4.378;2023-04-15T07:11:53;11.77;;;4.67;;
19221;SDS011;9745;50.828;4.378;2023-04-15T07:14:19;8.67;;;4.87;;
19221;SDS011;9745;50.828;4.378;2023-04-15T07:16:46;8.63;;;4.47;;
19221;SDS011;9745;50.828;4.378;2023-04-15T07:19:12;8.73;;;4.77;;
19221;SDS011;9745;50.828;4.378;2023-04-15T07:21:38;9.40;;;4.60;;
19221;SDS011;9745;50.828;4.378;2023-04-15T07:24:04;9.40;;;4.57;;
19221;SDS011;9745;50.828;4.378;2023-04-15T07:26:30;9.97;;;4.97;;
19221;SDS011;9745;50.828;4.378;2023-04-15T07:28:56;10.83;;;4.57;;
19221;SDS011;9745;50.828;4.378;2023-04-15T07:31:22;9.13;;;4.30;;
19221;SDS011;9745;50.828;4.378;2023-04-15T07:33:48;10.17;;;5.17;;
19221;SDS011;9745;50.828;4.378;2023-04-15T07:36:14;8.70;;;5.80;;
19221;SDS011;9745;50.828;4.378;2023-04-15T07:38:40;9.77;;;4.93;;
19221;SDS011;9745;50.828;4.378;2023-04-15T07:41:06;8.30;;;5.23;;
19221;SDS011;9745;50.828;4.378;2023-04-15T07:43:32;7.33;;;4.97;;
19221;SDS011;9745;50.828;4.378;2023-04-15T07:45:58;11.40;;;5.53;;
19221;SDS011;9745;50.828;4.378;2023-04-15T07:48:24;14.30;;;5.90;;
19221;SDS011;9745;50.828;4.378;2023-04-15T07:50:51;15.83;;;6.23;;
19221;SDS011;9745;50.828;4.378;2023-04-15T07:53:17;12.33;;;6.10;;
19221;SDS011;9745;50.828;4.378;2023-04-15T07:55:43;9.30;;;5.77;;
19221;SDS011;9745;50.828;4.378;2023-04-15T07:58:09;14.43;;;6.60;;
19221;SDS011;9745;50.828;4.378;2023-04-15T08:00:35;10.97;;;6.83;;
19221;SDS011;9745;50.828;4.378;2023-04-15T08:03:02;11.43;;;6.70;;
19221;SDS011;9745;50.828;4.378;2023-04-15T08:05:28;10.20;;;6.87;;
19221;SDS011;9745;50.828;4.378;2023-04-15T08:07:54;13.73;;;7.33;;
19221;SDS011;9745;50.828;4.378;2023-04-15T08:10:20;12.37;;;7.47;;
19221;SDS011;9745;50.828;4.378;2023-04-15T08:12:46;10.80;;;6.70;;
19221;SDS011;9745;50.828;4.378;2023-04-15T08:15:13;12.90;;;6.90;;
19221;SDS011;9745;50.828;4.378;2023-04-15T08:17:39;14.53;;;7.97;;
19221;SDS011;9745;50.828;4.378;2023-04-15T08:20:05;12.33;;;7.37;;
19221;SDS011;9745;50.828;4.378;2023-04-15T08:22:31;13.03;;;7.43;;
19221;SDS011;9745;50.828;4.378;2023-04-15T08:24:58;12.97;;;7.07;;
19221;SDS011;9745;50.828;4.378;2023-04-15T08:27:24;10.80;;;7.90;;
19221;SDS011;9745;50.828;4.378;2023-04-15T08:29:50;13.03;;;7.70;;
19221;SDS011;9745;50.828;4.378;2023-04-15T08:32:16;17.30;;;7.37;;
19221;SDS011;9745;50.828;4.378;2023-04-15T08:34:43;11.33;;;6.83;;
19221;SDS011;9745;50.828;4.378;2023-04-15T08:37:09;13.20;;;6.70;;
19221;SDS011;9745;50.828;4.378;2023-04-15T08:39:34;11.10;;;7.37;;
19221;SDS011;9745;50.828;4.378;2023-04-15T08:42:01;13.27;;;7.60;;
19221;SDS011;9745;50.828;4.378;2023-04-15T08:44:31;12.83;;;7.60;;
19221;SDS011;9745;50.828;4.378;2023-04-15T08:47:01;13.40;;;8.00;;
19221;SDS011;9745;50.828;4.378;2023-04-15T08:49:27;19.37;;;8.30;;
19221;SDS011;9745;50.828;4.378;2023-04-15T08:51:53;13.13;;;7.60;;
19221;SDS011;9745;50.828;4.378;2023-04-15T08:54:23;13.23;;;8.03;;
19221;SDS011;9745;50.828;4.378;2023-04-15T08:56:49;12.87;;;8.80;;
19221;SDS011;9745;50.828;4.378;2023-04-15T08:59:15;12.53;;;8.17;;
19221;SDS011;9745;50.828;4.378;2023-04-15T09:01:41;12.00;;;7.93;;
19221;SDS011;9745;50.828;4.378;2023-04-15T09:04:08;11.13;;;7.83;;
19221;SDS011;9745;50.828;4.378;2023-04-15T09:06:34;15.00;;;8.80;;
19221;SDS011;9745;50.828;4.378;2023-04-15T09:09:00;11.77;;;8.20;;
19221;SDS011;9745;50.828;4.378;2023-04-15T09:11:26;11.27;;;8.23;;
19221;SDS011;9745;50.828;4.378;2023-04-15T09:13:55;20.83;;;8.27;;
19221;SDS011;9745;50.828;4.378;2023-04-15T09:16:21;15.37;;;8.07;;
19221;SDS011;9745;50.828;4.378;2023-04-15T09:18:47;11.80;;;8.20;;
19221;SDS011;9745;50.828;4.378;2023-04-15T09:21:14;13.77;;;8.03;;
19221;SDS011;9745;50.828;4.378;2023-04-15T09:23:52;15.00;;;8.40;;
19221;SDS011;9745;50.828;4.378;2023-04-15T09:26:19;14.63;;;7.53;;
19221;SDS011;9745;50.828;4.378;2023-04-15T09:28:45;9.80;;;6.53;;
19221;SDS011;9745;50.828;4.378;2023-04-15T09:31:11;10.87;;;5.70;;
19221;SDS011;9745;50.828;4.378;2023-04-15T09:33:52;14.07;;;6.27;;
19221;SDS011;9745;50.828;4.378;2023-04-15T09:36:19;9.87;;;6.40;;
19221;SDS011;9745;50.828;4.378;2023-04-15T09:38:54;8.30;;;5.63;;
19221;SDS011;9745;50.828;4.378;2023-04-15T09:41:21;8.77;;;5.80;;
19221;SDS011;9745;50.828;4.378;2023-04-15T09:43:47;10.83;;;5.60;;
19221;SDS011;9745;50.828;4.378;2023-04-15T09:46:13;8.00;;;5.10;;
19221;SDS011;9745;50.828;4.378;2023-04-15T09:48:39;9.67;;;4.97;;
19221;SDS011;9745;50.828;4.378;2023-04-15T09:51:05;10.43;;;5.80;;
19221;SDS011;9745;50.828;4.378;2023-04-15T09:53:32;9.67;;;5.40;;
19221;SDS011;9745;50.828;4.378;2023-04-15T09:55:59;9.47;;;5.20;;
19221;SDS011;9745;50.828;4.378;2023-04-15T09:58:27;13.70;;;5.80;;
19221;SDS011;9745;50.828;4.378;2023-04-15T10:00:54;11.57;;;5.70;;
19221;SDS011;9745;50.828;4.378;2023-04-15T10:03:24;8.90;;;4.97;;
19221;SDS011;9745;50.828;4.378;2023-04-15T10:05:54;9.77;;;4.50;;
19221;SDS011;9745;50.828;4.378;2023-04-15T10:08:25;9.63;;;4.87;;
19221;SDS011;9745;50.828;4.378;2023-04-15T10:10:52;7.03;;;4.47;;
19221;SDS011;9745;50.828;4.378;2023-04-15T10:13:19;7.27;;;5.10;;
19221;SDS011;9745;50.828;4.378;2023-04-15T10:18:53;10.77;;;5.23;;
19221;SDS011;9745;50.828;4.378;2023-04-15T10:21:20;8.53;;;5.70;;
19221;SDS011;9745;50.828;4.378;2023-04-15T10:23:47;10.07;;;6.17;;
19221;SDS011;9745;50.828;4.378;2023-04-15T10:26:14;5.73;;;4.37;;
19221;SDS011;9745;50.828;4.378;2023-04-15T10:28:41;7.70;;;4.70;;
19221;SDS011;9745;50.828;4.378;2023-04-15T10:31:07;8.67;;;5.10;;
19221;SDS011;9745;50.828;4.378;2023-04-15T10:33:33;6.87;;;4.30;;
19221;SDS011;9745;50.828;4.378;2023-04-15T10:35:59;6.93;;;4.23;;
19221;SDS011;9745;50.828;4.378;2023-04-15T10:38:33;7.97;;;4.30;;
19221;SDS011;9745;50.828;4.378;2023-04-15T10:43:38;7.27;;;4.40;;
19221;SDS011;9745;50.828;4.378;2023-04-15T10:46:04;5.57;;;4.17;;
19221;SDS011;9745;50.828;4.378;2023-04-15T10:48:30;7.60;;;4.27;;
19221;SDS011;9745;50.828;4.378;2023-04-15T10:50:57;7.40;;;3.80;;
19221;SDS011;9745;50.828;4.378;2023-04-15T10:53:27;6.93;;;4.10;;
19221;SDS011;9745;50.828;4.378;2023-04-15T10:55:53;5.23;;;2.97;;
19221;SDS011;9745;50.828;4.378;2023-04-15T10:58:22;8.50;;;3.20;;
19221;SDS011;9745;50.828;4.378;2023-04-15T11:00:49;5.90;;;2.50;;
19221;SDS011;9745;50.828;4.378;2023-04-15T11:03:33;4.30;;;2.60;;
19221;SDS011;9745;50.828;4.378;2023-04-15T11:06:01;5.67;;;3.37;;
19221;SDS011;9745;50.828;4.378;2023-04-15T11:11:11;3.83;;;2.70;;
19221;SDS011;9745;50.828;4.378;2023-04-15T11:13:46;4.67;;;2.50;;
19221;SDS011;9745;50.828;4.378;2023-04-15T11:16:12;4.73;;;2.47;;
19221;SDS011;9745;50.828;4.378;2023-04-15T11:18:38;7.07;;;1.93;;
19221;SDS011;9745;50.828;4.378;2023-04-15T11:21:05;3.17;;;2.30;;
19221;SDS011;9745;50.828;4.378;2023-04-15T11:23:33;3.80;;;2.93;;
19221;SDS011;9745;50.828;4.378;2023-04-15T11:26:00;6.43;;;2.77;;
19221;SDS011;9745;50.828;4.378;2023-04-15T11:28:26;5.13;;;3.00;;
19221;SDS011;9745;50.828;4.378;2023-04-15T11:30:53;13.30;;;4.40;;
19221;SDS011;9745;50.828;4.378;2023-04-15T11:33:20;5.23;;;2.90;;
19221;SDS011;9745;50.828;4.378;2023-04-15T11:35:46;8.23;;;3.40;;
19221;SDS011;9745;50.828;4.378;2023-04-15T11:38:13;3.63;;;2.53;;
19221;SDS011;9745;50.828;4.378;2023-04-15T11:40:40;10.03;;;3.20;;
19221;SDS011;9745;50.828;4.378;2023-04-15T11:43:13;3.77;;;2.87;;
19221;SDS011;9745;50.828;4.378;2023-04-15T11:45:56;3.23;;;2.80;;
19221;SDS011;9745;50.828;4.378;2023-04-15T11:48:23;4.73;;;2.43;;
19221;SDS011;9745;50.828;4.378;2023-04-15T11:50:52;4.13;;;3.03;;
19221;SDS011;9745;50.828;4.378;2023-04-15T11:53:19;4.40;;;2.77;;
19221;SDS011;9745;50.828;4.378;2023-04-15T11:55:46;4.47;;;2.10;;
19221;SDS011;9745;50.828;4.378;2023-04-15T11:58:16;2.60;;;1.97;;
19221;SDS011;9745;50.828;4.378;2023-04-15T12:00:53;3.50;;;2.57;;
19221;SDS011;9745;50.828;4.378;2023-04-15T12:03:23;4.50;;;2.80;;
19221;SDS011;9745;50.828;4.378;2023-04-15T12:06:02;6.27;;;3.00;;
19221;SDS011;9745;50.828;4.378;2023-04-15T12:11:14;3.23;;;2.57;;
19221;SDS011;9745;50.828;4.378;2023-04-15T12:13:44;4.53;;;2.60;;
19221;SDS011;9745;50.828;4.378;2023-04-15T12:16:10;4.83;;;2.60;;
19221;SDS011;9745;50.828;4.378;2023-04-15T12:18:37;3.87;;;2.70;;
19221;SDS011;9745;50.828;4.378;2023-04-15T12:21:03;5.07;;;3.20;;
19221;SDS011;9745;50.828;4.378;2023-04-15T12:23:35;5.90;;;2.80;;
19221;SDS011;9745;50.828;4.378;2023-04-15T12:26:04;4.73;;;2.53;;
19221;SDS011;9745;50.828;4.378;2023-04-15T12:28:30;3.50;;;2.70;;
19221;SDS011;9745;50.828;4.378;2023-04-15T12:30:56;4.50;;;3.30;;
19221;SDS011;9745;50.828;4.378;2023-04-15T12:33:23;6.93;;;3.10;;
19221;SDS011;9745;50.828;4.378;2023-04-15T12:35:57;5.10;;;2.87;;
19221;SDS011;9745;50.828;4.378;2023-04-15T12:38:23;2.73;;;2.27;;
19221;SDS011;9745;50.828;4.378;2023-04-15T12:40:49;5.97;;;2.60;;
19221;SDS011;9745;50.828;4.378;2023-04-15T12:43:15;3.27;;;2.83;;
19221;SDS011;9745;50.828;4.378;2023-04-15T12:45:41;2.90;;;2.20;;
19221;SDS011;9745;50.828;4.378;2023-04-15T12:48:07;5.40;;;2.00;;
19221;SDS011;9745;50.828;4.378;2023-04-15T12:50:33;4.73;;;1.97;;
19221;SDS011;9745;50.828;4.378;2023-04-15T12:52:59;3.27;;;2.20;;
19221;SDS011;9745;50.828;4.378;2023-04-15T12:55:25;3.90;;;2.10;;
19221;SDS011;9745;50.828;4.378;2023-04-15T12:57:51;3.93;;;1.87;;
19221;SDS011;9745;50.828;4.378;2023-04-15T13:00:17;3.93;;;2.10;;
19221;SDS011;9745;50.828;4.378;2023-04-15T13:02:43;4.87;;;2.00;;
19221;SDS011;9745;50.828;4.378;2023-04-15T13:05:09;4.93;;;2.20;;
19221;SDS011;9745;50.828;4.378;2023-04-15T13:07:36;3.33;;;1.80;;
19221;SDS011;9745;50.828;4.378;2023-04-15T13:10:02;3.47;;;1.60;;
19221;SDS011;9745;50.828;4.378;2023-04-15T13:12:28;2.83;;;2.20;;
19221;SDS011;9745;50.828;4.378;2023-04-15T13:14:55;4.57;;;1.87;;
19221;SDS011;9745;50.828;4.378;2023-04-15T13:17:20;3.43;;;2.23;;
19221;SDS011;9745;50.828;4.378;2023-04-15T13:19:46;6.97;;;2.77;;
19221;SDS011;9745;50.828;4.378;2023-04-15T13:22:12;6.03;;;2.57;;
19221;SDS011;9745;50.828;4.378;2023-04-15T13:24:39;3.97;;;2.47;;
19221;SDS011;9745;50.828;4.378;2023-04-15T13:27:05;7.90;;;2.60;;
19221;SDS011;9745;50.828;4.378;2023-04-15T13:29:32;5.50;;;2.80;;
19221;SDS011;9745;50.828;4.378;2023-04-15T13:31:58;5.77;;;2.93;;
19221;SDS011;9745;50.828;4.378;2023-04-15T13:34:25;4.67;;;2.57;;
19221;SDS011;9745;50.828;4.378;2023-04-15T13:36:51;4.43;;;2.40;;
19221;SDS011;9745;50.828;4.378;2023-04-15T13:39:17;8.30;;;2.63;;
19221;SDS011;9745;50.828;4.378;2023-04-15T13:41:43;7.03;;;2.73;;
19221;SDS011;9745;50.828;4.378;2023-04-15T13:44:09;4.93;;;2.27;;
19221;SDS011;9745;50.828;4.378;2023-04-15T13:46:36;6.43;;;2.70;;
19221;SDS011;9745;50.828;4.378;2023-04-15T13:49:03;5.13;;;2.43;;
19221;SDS011;9745;50.828;4.378;2023-04-15T13:51:29;5.17;;;2.40;;
19221;SDS011;9745;50.828;4.378;2023-04-15T13:53:56;6.90;;;2.60;;
19221;SDS011;9745;50.828;4.378;2023-04-15T13:56:22;4.73;;;2.23;;
19221;SDS011;9745;50.828;4.378;2023-04-15T13:58:48;4.33;;;2.00;;
19221;SDS011;9745;50.828;4.378;2023-04-15T14:01:14;5.70;;;2.10;;
19221;SDS011;9745;50.828;4.378;2023-04-15T14:03:40;4.70;;;2.20;;
19221;SDS011;9745;50.828;4.378;2023-04-15T14:06:06;3.53;;;1.70;;
19221;SDS011;9745;50.828;4.378;2023-04-15T14:08:32;3.57;;;2.00;;
19221;SDS011;9745;50.828;4.378;2023-04-15T14:10:58;3.87;;;2.10;;
19221;SDS011;9745;50.828;4.378;2023-04-15T14:13:24;5.20;;;1.80;;
19221;SDS011;9745;50.828;4.378;2023-04-15T14:15:50;3.43;;;1.80;;
19221;SDS011;9745;50.828;4.378;2023-04-15T14:18:16;3.77;;;2.17;;
19221;SDS011;9745;50.828;4.378;2023-04-15T14:20:42;4.27;;;2.57;;
19221;SDS011;9745;50.828;4.378;2023-04-15T14:23:08;4.63;;;2.70;;
19221;SDS011;9745;50.828;4.378;2023-04-15T14:25:34;4.57;;;2.20;;
19221;SDS011;9745;50.828;4.378;2023-04-15T14:28:00;4.10;;;2.37;;
19221;SDS011;9745;50.828;4.378;2023-04-15T14:30:27;9.30;;;2.50;;
19221;SDS011;9745;50.828;4.378;2023-04-15T14:32:53;2.30;;;1.63;;
19221;SDS011;9745;50.828;4.378;2023-04-15T14:35:19;5.23;;;1.90;;
19221;SDS011;9745;50.828;4.378;2023-04-15T14:37:45;4.20;;;1.47;;
19221;SDS011;9745;50.828;4.378;2023-04-15T14:40:11;2.80;;;1.63;;
19221;SDS011;9745;50.828;4.378;2023-04-15T14:42:37;4.03;;;1.30;;
19221;SDS011;9745;50.828;4.378;2023-04-15T14:45:03;3.17;;;1.30;;
19221;SDS011;9745;50.828;4.378;2023-04-15T14:47:29;2.40;;;1.20;;
19221;SDS011;9745;50.828;4.378;2023-04-15T14:49:55;2.33;;;1.10;;
19221;SDS011;9745;50.828;4.378;2023-04-15T14:52:21;3.97;;;1.10;;
19221;SDS011;9745;50.828;4.378;2023-04-15T14:54:47;5.10;;;1.30;;
19221;SDS011;9745;50.828;4.378;2023-04-15T14:57:13;4.93;;;1.30;;
19221;SDS011;9745;50.828;4.378;2023-04-15T14:59:39;3.60;;;1.53;;
19221;SDS011;9745;50.828;4.378;2023-04-15T15:02:05;4.47;;;1.60;;